Time;durP1;ratioP1;P1;durP2;ratioP2;P2;SDS_P1;SDS_P2;PMS_P1;PMS_P2;Temp;Humidity;BMP_temperature;BMP_pressure;BME280_temperature;BME280_humidity;BME280_pressure;Samples;Min_cycle;Max_cycle;Signal;HPM_P1;HPM_P2
2023/07/01 00:00:10;;;;;;;;;;;18.10;99.90;;;;;;5132844;28;19935;-42
2023/07/01 00:02:36;;;;;;;;;;;18.10;99.90;;;;;;5133582;27;19986;-42
2023/07/01 00:05:03;;;;;;;;;;;18.10;99.90;;;;;;5136357;27;19908;-43
2023/07/01 00:07:29;;;;;;;;;;;18.10;99.90;;;;;;5136702;27;19911;-44
2023/07/01 00:09:54;;;;;;;;;;;18.10;99.90;;;;;;5137427;27;19960;-41
2023/07/01 00:12:20;;;;;;;;;;;18.00;99.90;;;;;;5137154;27;19915;-43
2023/07/01 00:14:45;;;;;;;;;;;18.00;99.90;;;;;;5136435;27;19911;-44
2023/07/01 00:17:12;;;;;;;;;;;18.00;99.90;;;;;;5137355;27;19985;-42
2023/07/01 00:19:38;;;;;;;;;;;18.00;99.90;;;;;;5137195;27;20024;-42
2023/07/01 00:22:03;;;;;;;;;;;18.00;99.90;;;;;;5136571;27;20006;-41
2023/07/01 00:24:29;;;;;;;;;;;17.90;99.90;;;;;;5137337;27;19913;-41
2023/07/01 00:26:54;;;;;;;;;;;18.00;99.90;;;;;;5137219;27;19991;-42
2023/07/01 00:29:20;;;;;;;;;;;18.00;99.90;;;;;;5136440;27;20285;-41
2023/07/01 00:31:46;;;;;;;;;;;18.00;99.90;;;;;;5136959;27;19907;-41
2023/07/01 00:34:12;;;;;;;;;;;18.00;99.90;;;;;;5137035;27;20388;-42
2023/07/01 00:36:37;;;;;;;;;;;18.00;99.90;;;;;;5136471;27;19953;-41
2023/07/01 00:39:03;;;;;;;;;;;18.00;99.90;;;;;;5136512;27;20015;-40
2023/07/01 00:41:29;;;;;;;;;;;18.00;99.90;;;;;;5137046;27;19908;-42
2023/07/01 00:43:54;;;;;;;;;;;18.00;99.90;;;;;;5135539;27;19918;-45
2023/07/01 00:46:21;;;;;;;;;;;18.00;99.90;;;;;;5136974;27;19946;-43
2023/07/01 00:48:47;;;;;;;;;;;18.00;99.90;;;;;;5135979;27;19912;-42
2023/07/01 00:51:13;;;;;;;;;;;18.00;99.90;;;;;;5136786;27;20259;-43
2023/07/01 00:53:39;;;;;;;;;;;18.00;99.90;;;;;;5136576;27;19991;-42
2023/07/01 00:56:06;;;;;;;;;;;18.10;99.90;;;;;;5136055;27;19935;-42
2023/07/01 00:58:32;;;;;;;;;;;18.10;99.90;;;;;;5136807;27;20277;-41
2023/07/01 01:01:00;;;;;;;;;;;18.10;99.90;;;;;;5136545;27;20333;-42
2023/07/01 01:03:26;;;;;;;;;;;18.10;99.90;;;;;;5135716;27;19907;-41
2023/07/01 01:06:04;;;;;;;;;;;18.10;99.90;;;;;;5136467;27;19918;-41
2023/07/01 01:08:30;;;;;;;;;;;18.10;99.90;;;;;;5136462;27;19912;-43
2023/07/01 01:10:59;;;;;;;;;;;18.10;99.90;;;;;;5135636;27;20255;-43
2023/07/01 01:13:26;;;;;;;;;;;18.10;99.90;;;;;;5136100;27;19956;-43
2023/07/01 01:15:51;;;;;;;;;;;18.10;99.90;;;;;;5135555;27;19908;-43
2023/07/01 01:18:19;;;;;;;;;;;18.10;99.90;;;;;;5135503;27;19922;-42
2023/07/01 01:20:45;;;;;;;;;;;18.10;99.90;;;;;;5135883;27;19911;-47
2023/07/01 01:23:14;;;;;;;;;;;18.10;99.90;;;;;;5136173;27;19908;-42
2023/07/01 01:25:43;;;;;;;;;;;18.10;99.90;;;;;;5135270;27;19907;-43
2023/07/01 01:28:09;;;;;;;;;;;18.10;99.90;;;;;;5136254;27;19913;-43
2023/07/01 01:30:35;;;;;;;;;;;18.10;99.90;;;;;;5135830;27;19915;-43
2023/07/01 01:33:01;;;;;;;;;;;18.10;99.90;;;;;;5135195;27;19960;-43
2023/07/01 01:35:26;;;;;;;;;;;18.10;99.90;;;;;;5135892;27;19908;-45
2023/07/01 01:38:01;;;;;;;;;;;18.10;99.90;;;;;;5135158;27;19926;-49
2023/07/01 01:40:36;;;;;;;;;;;18.10;99.90;;;;;;5134966;27;19980;-46
2023/07/01 01:43:08;;;;;;;;;;;18.10;99.90;;;;;;5135714;27;19963;-42
2023/07/01 01:45:34;;;;;;;;;;;18.10;99.90;;;;;;5134995;27;19994;-41
2023/07/01 01:48:00;;;;;;;;;;;18.10;99.90;;;;;;5135623;27;19912;-43
2023/07/01 01:50:26;;;;;;;;;;;18.10;99.90;;;;;;5135688;27;19907;-44
2023/07/01 01:52:52;;;;;;;;;;;18.10;99.90;;;;;;5134715;27;20014;-41
2023/07/01 01:55:19;;;;;;;;;;;18.10;99.90;;;;;;5135617;27;19907;-43
2023/07/01 01:57:44;;;;;;;;;;;18.10;99.90;;;;;;5135277;27;19911;-41
2023/07/01 02:00:13;;;;;;;;;;;18.10;99.90;;;;;;5134698;27;20289;-43
2023/07/01 02:02:38;;;;;;;;;;;18.10;99.90;;;;;;5135397;27;19914;-42
2023/07/01 02:05:04;;;;;;;;;;;18.10;99.90;;;;;;5135432;27;19982;-43
2023/07/01 02:07:29;;;;;;;;;;;18.10;99.90;;;;;;5134453;27;20044;-42
2023/07/01 02:09:55;;;;;;;;;;;18.10;99.90;;;;;;5135313;27;19908;-42
2023/07/01 02:12:20;;;;;;;;;;;18.10;99.90;;;;;;5134776;27;19964;-42
2023/07/01 02:14:46;;;;;;;;;;;18.00;99.90;;;;;;5134270;27;19975;-42
2023/07/01 02:17:11;;;;;;;;;;;17.90;99.90;;;;;;5135051;27;19915;-42
2023/07/01 02:19:37;;;;;;;;;;;17.90;99.90;;;;;;5134956;27;20394;-43
2023/07/01 02:22:02;;;;;;;;;;;17.90;99.90;;;;;;5134092;27;19911;-43
2023/07/01 02:24:28;;;;;;;;;;;17.90;99.90;;;;;;5134962;27;20014;-43
2023/07/01 02:26:53;;;;;;;;;;;17.80;99.90;;;;;;5133881;27;19994;-42
2023/07/01 02:29:19;;;;;;;;;;;17.70;99.90;;;;;;5134078;27;19914;-42
2023/07/01 02:31:44;;;;;;;;;;;17.70;99.90;;;;;;5134741;27;19911;-45
2023/07/01 02:34:10;;;;;;;;;;;17.70;99.90;;;;;;5134041;27;20272;-42
2023/07/01 02:36:40;;;;;;;;;;;17.70;99.90;;;;;;5134667;27;19907;-41
2023/07/01 02:39:06;;;;;;;;;;;17.60;99.90;;;;;;5134229;27;19923;-41
2023/07/01 02:41:31;;;;;;;;;;;17.60;99.90;;;;;;5133406;27;19969;-43
2023/07/01 02:43:56;;;;;;;;;;;17.60;99.90;;;;;;5134488;27;19915;-41
2023/07/01 02:46:22;;;;;;;;;;;17.60;99.90;;;;;;5134582;27;19950;-41
2023/07/01 02:48:47;;;;;;;;;;;17.70;99.90;;;;;;5133682;27;19908;-42
2023/07/01 02:51:13;;;;;;;;;;;17.60;99.90;;;;;;5134381;27;19965;-42
2023/07/01 02:53:39;;;;;;;;;;;17.60;99.90;;;;;;5134347;27;19954;-43
2023/07/01 02:56:04;;;;;;;;;;;17.60;99.90;;;;;;5133537;27;20422;-43
2023/07/01 02:58:30;;;;;;;;;;;17.70;99.90;;;;;;5134247;27;19926;-42
2023/07/01 03:00:55;;;;;;;;;;;17.60;99.90;;;;;;5134170;27;20334;-43
2023/07/01 03:03:21;;;;;;;;;;;17.60;99.90;;;;;;5133520;27;19932;-42
2023/07/01 03:05:46;;;;;;;;;;;17.60;99.90;;;;;;5134090;27;19907;-41
2023/07/01 03:08:12;;;;;;;;;;;17.60;99.90;;;;;;5134104;27;19914;-42
2023/07/01 03:10:37;;;;;;;;;;;17.70;99.90;;;;;;5133024;27;19912;-41
2023/07/01 03:13:03;;;;;;;;;;;17.60;99.90;;;;;;5133734;27;20357;-44
2023/07/01 03:15:28;;;;;;;;;;;17.60;99.90;;;;;;5134102;27;19953;-45
2023/07/01 03:17:54;;;;;;;;;;;17.60;99.90;;;;;;5133022;27;19915;-41
2023/07/01 03:20:25;;;;;;;;;;;17.60;99.90;;;;;;5133939;27;19919;-42
2023/07/01 03:22:51;;;;;;;;;;;17.60;99.90;;;;;;5133799;27;19907;-41
2023/07/01 03:25:16;;;;;;;;;;;17.60;99.90;;;;;;5133128;27;19911;-42
2023/07/01 03:27:42;;;;;;;;;;;17.50;99.90;;;;;;5133795;27;19915;-42
2023/07/01 03:30:13;;;;;;;;;;;17.50;99.90;;;;;;5133873;27;19907;-42
2023/07/01 03:32:42;;;;;;;;;;;17.50;99.90;;;;;;5133084;27;19908;-41
2023/07/01 03:35:09;;;;;;;;;;;17.50;99.90;;;;;;5133867;27;19933;-41
2023/07/01 03:37:35;;;;;;;;;;;17.40;99.90;;;;;;5132443;27;19922;-45
2023/07/01 03:40:01;;;;;;;;;;;17.20;99.90;;;;;;5133468;27;20381;-42
2023/07/01 03:42:26;;;;;;;;;;;17.00;99.90;;;;;;5133263;28;19954;-43
2023/07/01 03:44:52;;;;;;;;;;;16.80;99.90;;;;;;5132794;28;19950;-42
2023/07/01 03:47:17;;;;;;;;;;;16.70;99.90;;;;;;5133821;28;19915;-43
2023/07/01 03:49:43;;;;;;;;;;;16.60;99.90;;;;;;5133674;28;19964;-43
2023/07/01 03:52:08;;;;;;;;;;;16.50;99.90;;;;;;5132732;28;20289;-41
2023/07/01 03:54:33;;;;;;;;;;;16.40;99.90;;;;;;5133656;28;19937;-42
2023/07/01 03:56:59;;;;;;;;;;;16.40;99.90;;;;;;5133487;28;20519;-43
2023/07/01 03:59:24;;;;;;;;;;;16.30;99.90;;;;;;5132871;28;19914;-42
2023/07/01 04:01:50;;;;;;;;;;;16.30;99.90;;;;;;5133510;28;20377;-44
2023/07/01 04:04:15;;;;;;;;;;;16.30;99.90;;;;;;5133561;28;19908;-42
2023/07/01 04:06:41;;;;;;;;;;;16.30;99.90;;;;;;5132568;28;19958;-42
2023/07/01 04:09:12;;;;;;;;;;;16.30;99.90;;;;;;5133622;28;19913;-40
2023/07/01 04:11:40;;;;;;;;;;;16.20;99.90;;;;;;5133000;28;19911;-42
2023/07/01 04:14:06;;;;;;;;;;;16.30;99.90;;;;;;5132727;28;19908;-44
2023/07/01 04:16:32;;;;;;;;;;;16.20;99.90;;;;;;5133455;28;20006;-43
2023/07/01 04:18:59;;;;;;;;;;;16.20;99.90;;;;;;5133244;28;19919;-42
2023/07/01 04:21:25;;;;;;;;;;;16.20;99.90;;;;;;5132500;28;19908;-43
2023/07/01 04:23:50;;;;;;;;;;;16.20;99.90;;;;;;5133309;28;19907;-47
2023/07/01 04:26:16;;;;;;;;;;;16.20;99.90;;;;;;5133377;28;19908;-42
2023/07/01 04:28:41;;;;;;;;;;;16.20;99.90;;;;;;5132476;28;20425;-43
2023/07/01 04:31:07;;;;;;;;;;;16.20;99.90;;;;;;5133196;28;19907;-43
2023/07/01 04:33:32;;;;;;;;;;;16.20;99.90;;;;;;5133295;28;20000;-46
2023/07/01 04:35:58;;;;;;;;;;;16.20;99.90;;;;;;5132367;28;20365;-43
2023/07/01 04:38:23;;;;;;;;;;;16.20;99.90;;;;;;5132963;28;19961;-42
2023/07/01 04:40:49;;;;;;;;;;;16.20;99.90;;;;;;5132078;28;20002;-42
2023/07/01 04:43:14;;;;;;;;;;;16.20;99.90;;;;;;5133244;28;19994;-42
2023/07/01 04:45:43;;;;;;;;;;;16.30;99.90;;;;;;5133127;28;19912;-43
2023/07/01 04:48:09;;;;;;;;;;;16.30;99.90;;;;;;5132325;28;19907;-45
2023/07/01 04:50:35;;;;;;;;;;;16.30;99.90;;;;;;5134471;27;19911;-44
2023/07/01 04:53:00;;;;;;;;;;;16.30;99.90;;;;;;5137011;27;19914;-42
2023/07/01 04:55:26;;;;;;;;;;;16.30;99.90;;;;;;5136157;27;19908;-41
2023/07/01 04:57:51;;;;;;;;;;;16.30;99.90;;;;;;5136568;27;19962;-43
2023/07/01 05:00:17;;;;;;;;;;;16.30;99.90;;;;;;5136245;27;19918;-42
2023/07/01 05:02:43;;;;;;;;;;;16.40;99.90;;;;;;5135650;27;19912;-43
2023/07/01 05:05:08;;;;;;;;;;;16.40;99.90;;;;;;5136507;27;19978;-41
2023/07/01 05:07:34;;;;;;;;;;;16.40;99.90;;;;;;5136570;27;19907;-43
2023/07/01 05:09:59;;;;;;;;;;;16.40;99.90;;;;;;5135615;27;19963;-42
2023/07/01 05:12:26;;;;;;;;;;;16.50;99.90;;;;;;5135877;27;20273;-42
2023/07/01 05:14:52;;;;;;;;;;;16.50;99.90;;;;;;5136210;27;19907;-42
2023/07/01 05:17:18;;;;;;;;;;;16.50;99.90;;;;;;5135534;27;20365;-45
2023/07/01 05:19:43;;;;;;;;;;;16.50;99.90;;;;;;5133827;27;19915;-43
2023/07/01 05:22:09;;;;;;;;;;;16.50;99.90;;;;;;5122584;27;19916;-42
2023/07/01 05:24:34;;;;;;;;;;;16.60;99.90;;;;;;5131224;27;19911;-44
2023/07/01 05:27:00;;;;;;;;;;;16.50;99.90;;;;;;5126553;27;19971;-42
2023/07/01 05:29:26;;;;;;;;;;;16.60;99.90;;;;;;5128696;27;19964;-43
2023/07/01 05:31:52;;;;;;;;;;;16.60;99.90;;;;;;5131907;27;19911;-42
2023/07/01 05:34:17;;;;;;;;;;;16.60;99.90;;;;;;5123139;27;19908;-41
2023/07/01 05:36:43;;;;;;;;;;;16.60;99.90;;;;;;5123223;27;20378;-42
2023/07/01 05:39:09;;;;;;;;;;;16.60;99.90;;;;;;5130309;27;19927;-43
2023/07/01 05:41:35;;;;;;;;;;;16.70;99.90;;;;;;5134207;27;19912;-43
2023/07/01 05:44:00;;;;;;;;;;;16.70;99.90;;;;;;5135187;27;20415;-47
2023/07/01 05:46:26;;;;;;;;;;;16.70;99.90;;;;;;5129115;27;19912;-43
2023/07/01 05:48:52;;;;;;;;;;;16.80;99.90;;;;;;5119716;27;19911;-42
2023/07/01 05:51:17;;;;;;;;;;;16.80;99.90;;;;;;5131714;27;20396;-44
2023/07/01 05:53:44;;;;;;;;;;;16.90;99.90;;;;;;5135584;27;20274;-42
2023/07/01 05:56:10;;;;;;;;;;;16.90;99.90;;;;;;5132117;27;19911;-43
2023/07/01 05:58:35;;;;;;;;;;;16.80;99.90;;;;;;5128787;27;19923;-43
2023/07/01 06:01:01;;;;;;;;;;;16.90;99.90;;;;;;5123447;27;19912;-43
2023/07/01 06:03:27;;;;;;;;;;;17.00;99.90;;;;;;5120515;27;20335;-42
2023/07/01 06:05:52;;;;;;;;;;;17.00;99.90;;;;;;5134526;27;19919;-41
2023/07/01 06:08:18;;;;;;;;;;;17.00;99.90;;;;;;5135348;27;20011;-42
2023/07/01 06:10:43;;;;;;;;;;;17.00;99.90;;;;;;5121319;27;19919;-43
2023/07/01 06:13:09;;;;;;;;;;;17.10;99.90;;;;;;5133832;27;19952;-44
2023/07/01 06:15:34;;;;;;;;;;;17.10;99.90;;;;;;5125142;27;20357;-43
2023/07/01 06:18:00;;;;;;;;;;;17.10;99.90;;;;;;5123588;27;19935;-43
2023/07/01 06:20:25;;;;;;;;;;;17.10;99.90;;;;;;5128154;27;19915;-43
2023/07/01 06:22:51;;;;;;;;;;;17.10;99.90;;;;;;5129226;27;20337;-43
2023/07/01 06:25:16;;;;;;;;;;;17.00;99.90;;;;;;5114549;27;20476;-43
2023/07/01 06:27:42;;;;;;;;;;;17.00;99.90;;;;;;5124765;27;20319;-42
2023/07/01 06:30:07;;;;;;;;;;;17.00;99.90;;;;;;5129140;27;19914;-43
2023/07/01 06:32:33;;;;;;;;;;;17.10;99.90;;;;;;5134654;27;19911;-42
2023/07/01 06:34:58;;;;;;;;;;;17.00;99.90;;;;;;5133785;27;19914;-43
2023/07/01 06:37:24;;;;;;;;;;;17.10;99.90;;;;;;5134639;27;19965;-42
2023/07/01 06:39:49;;;;;;;;;;;17.00;99.90;;;;;;5134297;27;19948;-42
2023/07/01 06:42:15;;;;;;;;;;;17.10;99.90;;;;;;5122540;27;19914;-42
2023/07/01 06:44:40;;;;;;;;;;;17.10;99.90;;;;;;5113782;28;20005;-42
2023/07/01 06:47:06;;;;;;;;;;;17.00;99.90;;;;;;5113904;28;20388;-43
2023/07/01 06:49:32;;;;;;;;;;;17.00;99.90;;;;;;5113193;27;19964;-42
2023/07/01 06:51:57;;;;;;;;;;;17.00;99.90;;;;;;5125341;27;19919;-44
2023/07/01 06:54:23;;;;;;;;;;;17.00;99.90;;;;;;5119260;27;19912;-46
2023/07/01 06:56:48;;;;;;;;;;;16.90;99.90;;;;;;5117302;27;20010;-43
2023/07/01 06:59:14;;;;;;;;;;;16.90;99.90;;;;;;5113238;27;19921;-42
2023/07/01 07:01:39;;;;;;;;;;;16.90;99.90;;;;;;5127409;27;19979;-42
2023/07/01 07:04:05;;;;;;;;;;;16.80;99.90;;;;;;5133811;27;19911;-42
2023/07/01 07:06:30;;;;;;;;;;;16.80;99.90;;;;;;5119036;27;19952;-41
2023/07/01 07:08:56;;;;;;;;;;;16.80;99.90;;;;;;5112737;28;19908;-42
2023/07/01 07:11:21;;;;;;;;;;;16.90;99.90;;;;;;5121632;27;20380;-42
2023/07/01 07:13:47;;;;;;;;;;;16.90;99.90;;;;;;5133501;27;19911;-42
2023/07/01 07:16:13;;;;;;;;;;;16.90;99.90;;;;;;5133215;27;20254;-42
2023/07/01 07:18:38;;;;;;;;;;;17.00;99.90;;;;;;5133910;27;19916;-41
2023/07/01 07:21:04;;;;;;;;;;;17.00;99.90;;;;;;5134091;27;19908;-41
2023/07/01 07:23:29;;;;;;;;;;;17.00;99.90;;;;;;5130258;27;20008;-41
2023/07/01 07:25:55;;;;;;;;;;;17.10;99.90;;;;;;5123854;27;19911;-43
2023/07/01 07:28:20;;;;;;;;;;;17.10;99.90;;;;;;5131802;27;20389;-42
2023/07/01 07:30:46;;;;;;;;;;;17.10;99.90;;;;;;5132987;27;20010;-43
2023/07/01 07:33:11;;;;;;;;;;;17.10;99.90;;;;;;5128569;27;19907;-41
2023/07/01 07:35:37;;;;;;;;;;;17.10;99.90;;;;;;5133634;27;19950;-42
2023/07/01 07:38:03;;;;;;;;;;;17.10;99.90;;;;;;5132887;27;19938;-44
2023/07/01 07:40:28;;;;;;;;;;;17.10;99.90;;;;;;5133360;27;20271;-42
2023/07/01 07:42:54;;;;;;;;;;;17.10;99.90;;;;;;5133581;28;19915;-42
2023/07/01 07:45:20;;;;;;;;;;;17.10;99.90;;;;;;5129000;28;19919;-43
2023/07/01 07:47:46;;;;;;;;;;;17.10;99.90;;;;;;5128041;28;19935;-42
2023/07/01 07:50:11;;;;;;;;;;;17.10;99.90;;;;;;5130501;28;20365;-44
2023/07/01 07:52:37;;;;;;;;;;;17.10;99.90;;;;;;5125478;28;19912;-42
2023/07/01 07:55:03;;;;;;;;;;;17.10;99.90;;;;;;5122152;28;20010;-42
2023/07/01 07:57:28;;;;;;;;;;;17.10;99.90;;;;;;5115378;28;20434;-43
2023/07/01 07:59:54;;;;;;;;;;;17.10;99.90;;;;;;5121776;28;19918;-41
2023/07/01 08:02:19;;;;;;;;;;;17.20;99.90;;;;;;5122551;28;19915;-42
2023/07/01 08:04:45;;;;;;;;;;;17.20;99.90;;;;;;5119825;28;19919;-43
2023/07/01 08:07:10;;;;;;;;;;;17.20;99.90;;;;;;5115317;28;19931;-45
2023/07/01 08:09:37;;;;;;;;;;;17.20;99.90;;;;;;5126638;27;19980;-43
2023/07/01 08:12:03;;;;;;;;;;;17.30;99.90;;;;;;5123397;28;19916;-43
2023/07/01 08:14:29;;;;;;;;;;;17.30;99.90;;;;;;5126625;27;19919;-41
2023/07/01 08:16:55;;;;;;;;;;;17.30;99.90;;;;;;5118516;28;19957;-47
2023/07/01 08:19:20;;;;;;;;;;;17.30;99.90;;;;;;5115410;27;19927;-41
2023/07/01 08:21:46;;;;;;;;;;;17.30;99.90;;;;;;5113711;28;20002;-41
2023/07/01 08:24:11;;;;;;;;;;;17.30;99.90;;;;;;5130052;27;20278;-45
2023/07/01 08:26:37;;;;;;;;;;;17.30;99.90;;;;;;5123422;27;19933;-42
2023/07/01 08:29:05;;;;;;;;;;;17.30;99.90;;;;;;5128840;27;19919;-42
2023/07/01 08:31:31;;;;;;;;;;;17.40;99.90;;;;;;5135475;27;20002;-42
2023/07/01 08:33:57;;;;;;;;;;;17.30;99.90;;;;;;5123283;27;20019;-42
2023/07/01 08:36:22;;;;;;;;;;;17.40;99.90;;;;;;5117050;27;19980;-42
2023/07/01 08:38:48;;;;;;;;;;;17.40;99.90;;;;;;5132994;27;20024;-41
2023/07/01 08:41:14;;;;;;;;;;;17.40;99.90;;;;;;5135451;27;19915;-43
2023/07/01 08:43:40;;;;;;;;;;;17.50;99.90;;;;;;5129930;27;20398;-42
2023/07/01 08:46:09;;;;;;;;;;;17.50;99.90;;;;;;5125769;27;19991;-43
2023/07/01 08:48:37;;;;;;;;;;;17.50;99.90;;;;;;5130137;27;19915;-42
2023/07/01 08:51:25;;;;;;;;;;;17.50;99.90;;;;;;5145807;27;19918;-41
2023/07/01 08:53:51;;;;;;;;;;;17.50;99.90;;;;;;5121893;27;20400;-45
2023/07/01 08:56:20;;;;;;;;;;;17.60;99.90;;;;;;5134633;27;19947;-42
2023/07/01 08:58:46;;;;;;;;;;;17.60;99.90;;;;;;5135109;27;19927;-45
2023/07/01 09:01:11;;;;;;;;;;;17.50;99.90;;;;;;5133441;27;19916;-42
2023/07/01 09:03:37;;;;;;;;;;;17.60;99.90;;;;;;5121013;27;19911;-42
2023/07/01 09:06:05;;;;;;;;;;;17.60;99.90;;;;;;5124893;27;20002;-43
2023/07/01 09:08:32;;;;;;;;;;;17.70;99.90;;;;;;5113361;28;19915;-44
2023/07/01 09:10:57;;;;;;;;;;;17.70;99.90;;;;;;5123927;27;20431;-45
2023/07/01 09:13:23;;;;;;;;;;;17.70;99.90;;;;;;5131129;27;19915;-42
2023/07/01 09:15:48;;;;;;;;;;;17.80;99.90;;;;;;5135502;27;19998;-42
2023/07/01 09:18:28;;;;;;;;;;;17.80;99.90;;;;;;5135585;27;19980;-44
2023/07/01 09:20:54;;;;;;;;;;;17.90;99.90;;;;;;5135210;27;19912;-42
2023/07/01 09:23:34;;;;;;;;;;;17.90;99.90;;;;;;5134725;27;19998;-43
2023/07/01 09:26:08;;;;;;;;;;;17.90;99.90;;;;;;5135438;27;20293;-42
2023/07/01 09:28:34;;;;;;;;;;;18.00;99.90;;;;;;5135675;27;19964;-42
2023/07/01 09:31:00;;;;;;;;;;;18.00;99.90;;;;;;5134768;27;19912;-41
2023/07/01 09:33:26;;;;;;;;;;;18.00;99.90;;;;;;5135999;27;20347;-44
2023/07/01 09:35:57;;;;;;;;;;;18.10;99.90;;;;;;5135464;27;19933;-42
2023/07/01 09:38:25;;;;;;;;;;;18.10;99.90;;;;;;5134926;27;19916;-43
2023/07/01 09:40:51;;;;;;;;;;;18.10;99.90;;;;;;5135597;27;19916;-42
2023/07/01 09:43:19;;;;;;;;;;;18.10;99.90;;;;;;5134868;27;19953;-43
2023/07/01 09:45:54;;;;;;;;;;;18.10;99.90;;;;;;5135846;27;19963;-42
2023/07/01 09:48:20;;;;;;;;;;;18.20;99.90;;;;;;5135568;27;20262;-43
2023/07/01 09:50:45;;;;;;;;;;;18.20;99.90;;;;;;5134710;27;20028;-45
2023/07/01 09:53:24;;;;;;;;;;;18.20;99.90;;;;;;5135679;27;19911;-43
2023/07/01 09:55:50;;;;;;;;;;;18.20;99.90;;;;;;5135618;27;19937;-42
2023/07/01 09:58:16;;;;;;;;;;;18.30;99.90;;;;;;5134699;27;19915;-43
2023/07/01 10:00:41;;;;;;;;;;;18.30;99.90;;;;;;5135550;27;19912;-43
2023/07/01 10:03:07;;;;;;;;;;;18.30;99.90;;;;;;5135426;27;20426;-42
2023/07/01 10:05:33;;;;;;;;;;;18.20;99.90;;;;;;5134743;27;19907;-43
2023/07/01 10:07:59;;;;;;;;;;;18.30;99.90;;;;;;5135386;27;19930;-43
2023/07/01 10:10:24;;;;;;;;;;;18.30;99.90;;;;;;5135147;27;20365;-42
2023/07/01 10:12:51;;;;;;;;;;;18.30;99.90;;;;;;5134223;27;19998;-42
2023/07/01 10:15:18;;;;;;;;;;;18.30;99.90;;;;;;5135236;27;19988;-42
2023/07/01 10:17:45;;;;;;;;;;;18.30;99.90;;;;;;5135004;27;19959;-42
2023/07/01 10:20:29;;;;;;;;;;;18.30;99.90;;;;;;5134447;27;20281;-42
2023/07/01 10:22:58;;;;;;;;;;;18.30;99.90;;;;;;5134782;27;20003;-42
2023/07/01 10:25:36;;;;;;;;;;;18.30;99.90;;;;;;5134245;27;19908;-42
2023/07/01 10:28:12;;;;;;;;;;;18.40;99.90;;;;;;5134915;27;19915;-42
2023/07/01 10:30:43;;;;;;;;;;;18.40;99.90;;;;;;5134869;27;19907;-43
2023/07/01 10:33:27;;;;;;;;;;;18.50;99.90;;;;;;5134124;27;19907;-42
2023/07/01 10:36:08;;;;;;;;;;;18.50;99.90;;;;;;5134779;27;19907;-42
2023/07/01 10:38:35;;;;;;;;;;;18.60;99.90;;;;;;5134271;27;19927;-45
2023/07/01 10:41:00;;;;;;;;;;;18.60;99.90;;;;;;5133391;27;19911;-42
2023/07/01 10:43:38;;;;;;;;;;;18.60;99.90;;;;;;5134746;27;19933;-43
2023/07/01 10:46:04;;;;;;;;;;;18.60;99.90;;;;;;5134590;27;20336;-43
2023/07/01 10:48:29;;;;;;;;;;;18.60;99.90;;;;;;5132970;27;19968;-42
2023/07/01 10:51:04;;;;;;;;;;;18.70;99.90;;;;;;5134221;27;19911;-46
2023/07/01 10:53:30;;;;;;;;;;;18.60;99.90;;;;;;5132741;27;20014;-45
2023/07/01 10:56:10;;;;;;;;;;;18.60;99.90;;;;;;5129873;27;19938;-44
2023/07/01 10:58:36;;;;;;;;;;;18.60;99.90;;;;;;5132212;27;19924;-42
2023/07/01 11:01:01;;;;;;;;;;;18.70;99.90;;;;;;5132320;27;19963;-42
2023/07/01 11:03:36;;;;;;;;;;;18.70;99.90;;;;;;5122707;27;20286;-43
2023/07/01 11:06:11;;;;;;;;;;;18.70;99.90;;;;;;5121234;27;20007;-43
2023/07/01 11:08:43;;;;;;;;;;;18.70;99.90;;;;;;5132959;27;19908;-42
2023/07/01 11:11:09;;;;;;;;;;;18.80;99.90;;;;;;5125164;27;20006;-42
2023/07/01 11:13:37;;;;;;;;;;;18.80;99.90;;;;;;5124695;27;20003;-44
2023/07/01 11:16:10;;;;;;;;;;;18.90;99.90;;;;;;5121048;27;19916;-44
2023/07/01 11:18:42;;;;;;;;;;;18.90;99.90;;;;;;5121287;27;19920;-44
2023/07/01 11:21:12;;;;;;;;;;;18.90;99.90;;;;;;5124226;27;19912;-43
2023/07/01 11:23:39;;;;;;;;;;;18.90;99.90;;;;;;5120676;27;19977;-43
2023/07/01 11:26:04;;;;;;;;;;;19.00;99.90;;;;;;5124659;27;19915;-43
2023/07/01 11:28:31;;;;;;;;;;;19.10;99.90;;;;;;5131046;27;19908;-42
2023/07/01 11:31:07;;;;;;;;;;;19.20;99.90;;;;;;5127069;27;20381;-43
2023/07/01 11:33:32;;;;;;;;;;;19.20;99.90;;;;;;5128770;27;19912;-44
2023/07/01 11:35:58;;;;;;;;;;;19.20;99.90;;;;;;5128551;27;19935;-42
2023/07/01 11:38:27;;;;;;;;;;;19.20;99.90;;;;;;5133013;27;20010;-43
2023/07/01 11:40:53;;;;;;;;;;;19.20;99.90;;;;;;5133657;27;19907;-42
2023/07/01 11:43:21;;;;;;;;;;;19.20;99.90;;;;;;5125237;27;20290;-43
2023/07/01 11:45:48;;;;;;;;;;;19.20;99.90;;;;;;5133019;28;19912;-43
2023/07/01 11:48:14;;;;;;;;;;;19.20;99.90;;;;;;5126953;28;20004;-43
2023/07/01 11:50:52;;;;;;;;;;;19.20;99.90;;;;;;5131950;28;19958;-42
2023/07/01 11:53:17;;;;;;;;;;;19.20;99.90;;;;;;5133626;28;19998;-42
2023/07/01 11:55:43;;;;;;;;;;;19.20;99.90;;;;;;5133614;28;20002;-42
2023/07/01 11:58:44;;;;;;;;;;;19.20;99.90;;;;;;5125202;28;19970;-43
2023/07/01 12:01:22;;;;;;;;;;;19.20;99.90;;;;;;5083518;28;19917;-42
2023/07/01 12:03:47;;;;;;;;;;;19.20;99.90;;;;;;5128770;27;19911;-42
2023/07/01 12:06:23;;;;;;;;;;;19.20;99.90;;;;;;5127498;27;20249;-41
2023/07/01 12:08:53;;;;;;;;;;;19.20;99.90;;;;;;5122854;27;19962;-41
2023/07/01 12:11:23;;;;;;;;;;;19.40;99.90;;;;;;5129634;27;19911;-41
2023/07/01 12:13:49;;;;;;;;;;;19.70;99.90;;;;;;5136187;27;19918;-43
2023/07/01 12:16:14;;;;;;;;;;;19.90;99.90;;;;;;5129773;27;19911;-42
2023/07/01 12:18:40;;;;;;;;;;;20.10;99.90;;;;;;5125789;27;20011;-41
2023/07/01 12:21:05;;;;;;;;;;;20.20;99.90;;;;;;5135758;27;19918;-44
2023/07/01 12:23:44;;;;;;;;;;;20.20;99.90;;;;;;5135545;27;20383;-42
2023/07/01 12:26:10;;;;;;;;;;;20.10;99.90;;;;;;5131744;27;19960;-45
2023/07/01 12:28:37;;;;;;;;;;;20.00;99.90;;;;;;5136687;27;20384;-42
2023/07/01 12:31:02;;;;;;;;;;;19.90;99.90;;;;;;5137182;27;19939;-41
2023/07/01 12:33:28;;;;;;;;;;;19.80;99.90;;;;;;5131016;27;19954;-43
2023/07/01 12:35:55;;;;;;;;;;;19.70;99.90;;;;;;5136413;27;19922;-44
2023/07/01 12:38:20;;;;;;;;;;;19.60;99.90;;;;;;5136121;27;19916;-44
2023/07/01 12:40:46;;;;;;;;;;;19.60;99.90;;;;;;5134933;27;19918;-42
2023/07/01 12:43:11;;;;;;;;;;;19.60;99.90;;;;;;5137223;27;19912;-41
2023/07/01 12:45:37;;;;;;;;;;;19.50;99.90;;;;;;5136608;27;19911;-41
2023/07/01 12:48:04;;;;;;;;;;;19.50;99.90;;;;;;5135677;27;19911;-44
2023/07/01 12:50:30;;;;;;;;;;;19.40;99.90;;;;;;5136452;27;20034;-44
2023/07/01 12:52:57;;;;;;;;;;;19.30;99.90;;;;;;5136554;27;19990;-46
2023/07/01 12:55:23;;;;;;;;;;;19.30;99.90;;;;;;5135636;27;19923;-42
2023/07/01 12:57:48;;;;;;;;;;;19.20;99.90;;;;;;5133230;27;20462;-41
2023/07/01 13:00:14;;;;;;;;;;;19.20;99.90;;;;;;5126933;27;19927;-42
2023/07/01 13:02:42;;;;;;;;;;;19.10;99.90;;;;;;5119778;27;19915;-42
2023/07/01 13:05:07;;;;;;;;;;;19.10;99.90;;;;;;5117794;27;19911;-43
2023/07/01 13:07:33;;;;;;;;;;;19.10;99.90;;;;;;5117705;27;19917;-42
2023/07/01 13:09:59;;;;;;;;;;;19.20;99.90;;;;;;5128876;27;19934;-40
2023/07/01 13:12:25;;;;;;;;;;;19.30;99.90;;;;;;5122788;27;19912;-42
2023/07/01 13:14:51;;;;;;;;;;;19.50;99.90;;;;;;5127229;27;19950;-43
2023/07/01 13:17:29;;;;;;;;;;;19.70;99.90;;;;;;5117347;27;19912;-41
2023/07/01 13:19:55;;;;;;;;;;;19.90;99.90;;;;;;5132820;27;20373;-42
2023/07/01 13:22:20;;;;;;;;;;;20.10;99.90;;;;;;5132873;27;19951;-43
2023/07/01 13:24:46;;;;;;;;;;;20.20;99.90;;;;;;5118591;27;19919;-43
2023/07/01 13:27:13;;;;;;;;;;;20.30;99.90;;;;;;5133484;27;19958;-42
2023/07/01 13:29:39;;;;;;;;;;;20.20;99.90;;;;;;5118465;27;19912;-43
2023/07/01 13:32:04;;;;;;;;;;;20.10;99.90;;;;;;5118658;27;19915;-42
2023/07/01 13:34:34;;;;;;;;;;;20.10;99.90;;;;;;5115546;28;20370;-41
2023/07/01 13:36:59;;;;;;;;;;;20.10;99.90;;;;;;5114634;28;20251;-41
2023/07/01 13:39:35;;;;;;;;;;;20.10;99.90;;;;;;5131769;27;19919;-43
2023/07/01 13:42:01;;;;;;;;;;;20.10;99.90;;;;;;5135734;27;19911;-43
2023/07/01 13:44:27;;;;;;;;;;;20.30;99.90;;;;;;5134722;27;19918;-42
2023/07/01 13:46:53;;;;;;;;;;;20.40;99.90;;;;;;5135700;27;19914;-43
2023/07/01 13:49:23;;;;;;;;;;;20.60;99.90;;;;;;5135672;27;19996;-46
2023/07/01 13:51:48;;;;;;;;;;;20.60;99.90;;;;;;5135594;27;19911;-42
2023/07/01 13:54:16;;;;;;;;;;;20.60;99.90;;;;;;5135528;27;19915;-43
2023/07/01 13:56:42;;;;;;;;;;;20.70;99.90;;;;;;5135075;27;19911;-44
2023/07/01 13:59:07;;;;;;;;;;;20.70;99.90;;;;;;5135531;27;19923;-45
2023/07/01 14:01:33;;;;;;;;;;;20.70;99.90;;;;;;5135560;27;19915;-44
2023/07/01 14:04:02;;;;;;;;;;;20.80;99.90;;;;;;5134624;27;19982;-42
2023/07/01 14:06:28;;;;;;;;;;;20.90;99.90;;;;;;5124946;27;19912;-42
2023/07/01 14:08:54;;;;;;;;;;;21.00;99.90;;;;;;5131920;27;19941;-43
2023/07/01 14:11:20;;;;;;;;;;;21.30;99.90;;;;;;5128919;27;19951;-43
2023/07/01 14:13:53;;;;;;;;;;;21.50;99.90;;;;;;5132964;27;19911;-42